sensor_id;sensor_type;location;lat;lon;timestamp;temperature;humidity
15239;DHT22;7722;53.274;9.500;2022-07-22T00:01:49;17.80;99.90
15239;DHT22;7722;53.274;9.500;2022-07-22T00:04:16;17.60;99.90
15239;DHT22;7722;53.274;9.500;2022-07-22T00:06:44;17.40;99.90
15239;DHT22;7722;53.274;9.500;2022-07-22T00:09:11;17.30;99.90
15239;DHT22;7722;53.274;9.500;2022-07-22T00:11:38;17.20;99.90
15239;DHT22;7722;53.274;9.500;2022-07-22T00:14:05;17.20;99.90
15239;DHT22;7722;53.274;9.500;2022-07-22T00:16:33;17.10;99.90
15239;DHT22;7722;53.274;9.500;2022-07-22T00:19:00;17.20;99.90
15239;DHT22;7722;53.274;9.500;2022-07-22T00:21:27;17.00;99.90
15239;DHT22;7722;53.274;9.500;2022-07-22T00:23:55;17.00;99.90
15239;DHT22;7722;53.274;9.500;2022-07-22T00:26:22;17.00;99.90
15239;DHT22;7722;53.274;9.500;2022-07-22T00:28:49;16.90;99.90
15239;DHT22;7722;53.274;9.500;2022-07-22T00:31:16;16.90;99.90
15239;DHT22;7722;53.274;9.500;2022-07-22T00:33:43;16.90;99.90
15239;DHT22;7722;53.274;9.500;2022-07-22T00:36:10;16.80;99.90
15239;DHT22;7722;53.274;9.500;2022-07-22T00:38:37;16.90;99.90
15239;DHT22;7722;53.274;9.500;2022-07-22T00:41:06;16.70;99.90
15239;DHT22;7722;53.274;9.500;2022-07-22T00:43:49;16.80;99.90
15239;DHT22;7722;53.274;9.500;2022-07-22T00:46:17;16.70;99.90
15239;DHT22;7722;53.274;9.500;2022-07-22T00:48:44;16.70;99.90
15239;DHT22;7722;53.274;9.500;2022-07-22T00:51:11;16.70;99.90
15239;DHT22;7722;53.274;9.500;2022-07-22T00:53:38;16.70;99.90
15239;DHT22;7722;53.274;9.500;2022-07-22T00:56:07;16.60;99.90
15239;DHT22;7722;53.274;9.500;2022-07-22T00:58:34;16.50;99.90
15239;DHT22;7722;53.274;9.500;2022-07-22T01:01:01;16.40;99.90
15239;DHT22;7722;53.274;9.500;2022-07-22T01:03:28;16.40;99.90
15239;DHT22;7722;53.274;9.500;2022-07-22T01:05:55;16.40;99.90
15239;DHT22;7722;53.274;9.500;2022-07-22T01:08:23;16.30;99.90
15239;DHT22;7722;53.274;9.500;2022-07-22T01:10:50;16.40;99.90
15239;DHT22;7722;53.274;9.500;2022-07-22T01:13:19;16.30;99.90
15239;DHT22;7722;53.274;9.500;2022-07-22T01:15:46;16.40;99.90
15239;DHT22;7722;53.274;9.500;2022-07-22T01:18:13;16.40;99.90
15239;DHT22;7722;53.274;9.500;2022-07-22T01:20:41;16.40;99.90
15239;DHT22;7722;53.274;9.500;2022-07-22T01:23:08;16.40;99.90
15239;DHT22;7722;53.274;9.500;2022-07-22T01:25:36;16.30;99.90
15239;DHT22;7722;53.274;9.500;2022-07-22T01:28:03;16.20;99.90
15239;DHT22;7722;53.274;9.500;2022-07-22T01:30:30;16.10;99.90
15239;DHT22;7722;53.274;9.500;2022-07-22T01:32:57;16.10;99.90
15239;DHT22;7722;53.274;9.500;2022-07-22T01:35:24;16.00;99.90
15239;DHT22;7722;53.274;9.500;2022-07-22T01:37:53;16.00;99.90
15239;DHT22;7722;53.274;9.500;2022-07-22T01:40:20;15.90;99.90
15239;DHT22;7722;53.274;9.500;2022-07-22T01:42:47;15.90;99.90
15239;DHT22;7722;53.274;9.500;2022-07-22T01:45:14;16.00;99.90
15239;DHT22;7722;53.274;9.500;2022-07-22T01:47:41;15.90;99.90
15239;DHT22;7722;53.274;9.500;2022-07-22T01:50:10;15.90;99.90
15239;DHT22;7722;53.274;9.500;2022-07-22T01:52:38;15.90;99.90
15239;DHT22;7722;53.274;9.500;2022-07-22T01:55:08;15.90;99.90
15239;DHT22;7722;53.274;9.500;2022-07-22T01:57:35;15.90;99.90
15239;DHT22;7722;53.274;9.500;2022-07-22T02:00:04;15.90;99.90
15239;DHT22;7722;53.274;9.500;2022-07-22T02:02:31;15.90;99.90
15239;DHT22;7722;53.274;9.500;2022-07-22T02:04:58;15.90;99.90
15239;DHT22;7722;53.274;9.500;2022-07-22T02:07:25;15.90;99.90
15239;DHT22;7722;53.274;9.500;2022-07-22T02:09:52;15.80;99.90
15239;DHT22;7722;53.274;9.500;2022-07-22T02:12:20;15.70;99.90
15239;DHT22;7722;53.274;9.500;2022-07-22T02:14:48;15.70;99.90
15239;DHT22;7722;53.274;9.500;2022-07-22T02:17:15;15.70;99.90
15239;DHT22;7722;53.274;9.500;2022-07-22T02:19:42;15.60;99.90
15239;DHT22;7722;53.274;9.500;2022-07-22T02:22:09;15.70;99.90
15239;DHT22;7722;53.274;9.500;2022-07-22T02:24:36;15.70;99.90
15239;DHT22;7722;53.274;9.500;2022-07-22T02:27:03;15.60;99.90
15239;DHT22;7722;53.274;9.500;2022-07-22T02:29:32;15.50;99.90
15239;DHT22;7722;53.274;9.500;2022-07-22T02:31:59;15.50;99.90
15239;DHT22;7722;53.274;9.500;2022-07-22T02:34:26;15.60;99.90
15239;DHT22;7722;53.274;9.500;2022-07-22T02:36:53;15.50;99.90
15239;DHT22;7722;53.274;9.500;2022-07-22T02:39:20;15.60;99.90
15239;DHT22;7722;53.274;9.500;2022-07-22T02:41:47;15.60;99.90
15239;DHT22;7722;53.274;9.500;2022-07-22T02:44:14;15.70;99.90
15239;DHT22;7722;53.274;9.500;2022-07-22T02:46:43;15.70;99.90
15239;DHT22;7722;53.274;9.500;2022-07-22T02:49:10;15.70;99.90
15239;DHT22;7722;53.274;9.500;2022-07-22T02:51:37;15.60;99.90
15239;DHT22;7722;53.274;9.500;2022-07-22T02:54:04;15.50;99.90
15239;DHT22;7722;53.274;9.500;2022-07-22T02:56:32;15.60;99.90
15239;DHT22;7722;53.274;9.500;2022-07-22T02:58:59;15.70;99.90
15239;DHT22;7722;53.274;9.500;2022-07-22T03:01:26;15.70;99.90
15239;DHT22;7722;53.274;9.500;2022-07-22T03:03:54;15.70;99.90
15239;DHT22;7722;53.274;9.500;2022-07-22T03:06:22;15.60;99.90
15239;DHT22;7722;53.274;9.500;2022-07-22T03:08:49;15.70;99.90
15239;DHT22;7722;53.274;9.500;2022-07-22T03:11:16;15.60;99.90
15239;DHT22;7722;53.274;9.500;2022-07-22T03:13:43;15.60;99.90
15239;DHT22;7722;53.274;9.500;2022-07-22T03:16:09;15.60;99.90
15239;DHT22;7722;53.274;9.500;2022-07-22T03:18:36;15.60;99.90
15239;DHT22;7722;53.274;9.500;2022-07-22T03:21:05;15.60;99.90
15239;DHT22;7722;53.274;9.500;2022-07-22T03:23:32;15.60;99.90
15239;DHT22;7722;53.274;9.500;2022-07-22T03:25:59;15.60;99.90
15239;DHT22;7722;53.274;9.500;2022-07-22T03:28:26;15.70;99.90
15239;DHT22;7722;53.274;9.500;2022-07-22T03:30:53;15.60;99.90
15239;DHT22;7722;53.274;9.500;2022-07-22T03:33:20;15.50;99.90
15239;DHT22;7722;53.274;9.500;2022-07-22T03:35:47;15.50;99.90
15239;DHT22;7722;53.274;9.500;2022-07-22T03:38:16;15.50;99.90
15239;DHT22;7722;53.274;9.500;2022-07-22T03:40:43;15.40;99.90
15239;DHT22;7722;53.274;9.500;2022-07-22T03:43:10;15.40;99.90
15239;DHT22;7722;53.274;9.500;2022-07-22T03:45:37;15.40;99.90
15239;DHT22;7722;53.274;9.500;2022-07-22T03:48:05;15.40;99.90
15239;DHT22;7722;53.274;9.500;2022-07-22T03:50:32;15.40;99.90
15239;DHT22;7722;53.274;9.500;2022-07-22T03:52:59;15.40;99.90
15239;DHT22;7722;53.274;9.500;2022-07-22T03:55:27;15.50;99.90
15239;DHT22;7722;53.274;9.500;2022-07-22T03:57:54;15.50;99.90
15239;DHT22;7722;53.274;9.500;2022-07-22T04:00:21;15.50;99.90
15239;DHT22;7722;53.274;9.500;2022-07-22T04:02:48;15.50;99.90
15239;DHT22;7722;53.274;9.500;2022-07-22T04:05:15;15.40;99.90
15239;DHT22;7722;53.274;9.500;2022-07-22T04:07:42;15.50;99.90
15239;DHT22;7722;53.274;9.500;2022-07-22T04:10:09;15.40;99.90
15239;DHT22;7722;53.274;9.500;2022-07-22T04:12:39;15.40;99.90
15239;DHT22;7722;53.274;9.500;2022-07-22T04:15:07;15.30;99.90
15239;DHT22;7722;53.274;9.500;2022-07-22T04:17:35;15.30;99.90
15239;DHT22;7722;53.274;9.500;2022-07-22T04:20:02;15.30;99.90
15239;DHT22;7722;53.274;9.500;2022-07-22T04:22:29;15.30;99.90
15239;DHT22;7722;53.274;9.500;2022-07-22T04:24:57;15.30;99.90
15239;DHT22;7722;53.274;9.500;2022-07-22T04:27:24;15.30;99.90
15239;DHT22;7722;53.274;9.500;2022-07-22T04:29:52;15.40;99.90
15239;DHT22;7722;53.274;9.500;2022-07-22T04:32:19;15.40;99.90
15239;DHT22;7722;53.274;9.500;2022-07-22T04:34:46;15.30;99.90
15239;DHT22;7722;53.274;9.500;2022-07-22T04:37:13;15.30;99.90
15239;DHT22;7722;53.274;9.500;2022-07-22T04:39:40;15.30;99.90
15239;DHT22;7722;53.274;9.500;2022-07-22T04:42:07;15.20;99.90
15239;DHT22;7722;53.274;9.500;2022-07-22T04:44:34;15.30;99.90
15239;DHT22;7722;53.274;9.500;2022-07-22T04:47:02;15.20;99.90
15239;DHT22;7722;53.274;9.500;2022-07-22T04:49:29;15.30;99.90
15239;DHT22;7722;53.274;9.500;2022-07-22T04:51:56;15.30;99.90
15239;DHT22;7722;53.274;9.500;2022-07-22T04:54:23;15.30;99.90
15239;DHT22;7722;53.274;9.500;2022-07-22T04:56:50;15.40;99.90
15239;DHT22;7722;53.274;9.500;2022-07-22T04:59:17;15.30;99.90
15239;DHT22;7722;53.274;9.500;2022-07-22T05:01:44;15.40;99.90
15239;DHT22;7722;53.274;9.500;2022-07-22T05:04:13;15.40;99.90
15239;DHT22;7722;53.274;9.500;2022-07-22T05:06:40;15.30;99.90
15239;DHT22;7722;53.274;9.500;2022-07-22T05:09:07;15.30;99.90
15239;DHT22;7722;53.274;9.500;2022-07-22T05:11:35;15.30;99.90
15239;DHT22;7722;53.274;9.500;2022-07-22T05:14:02;15.20;99.90
15239;DHT22;7722;53.274;9.500;2022-07-22T05:16:29;15.30;99.90
15239;DHT22;7722;53.274;9.500;2022-07-22T05:18:56;15.30;99.90
15239;DHT22;7722;53.274;9.500;2022-07-22T05:21:24;15.30;99.90
15239;DHT22;7722;53.274;9.500;2022-07-22T05:23:51;15.30;99.90
15239;DHT22;7722;53.274;9.500;2022-07-22T05:26:18;15.30;99.90
15239;DHT22;7722;53.274;9.500;2022-07-22T05:28:45;15.50;99.90
15239;DHT22;7722;53.274;9.500;2022-07-22T05:31:12;15.50;99.90
15239;DHT22;7722;53.274;9.500;2022-07-22T05:33:39;15.50;99.90
15239;DHT22;7722;53.274;9.500;2022-07-22T05:36:07;15.50;99.90
15239;DHT22;7722;53.274;9.500;2022-07-22T05:38:36;15.40;99.90
15239;DHT22;7722;53.274;9.500;2022-07-22T05:41:03;15.60;99.90
15239;DHT22;7722;53.274;9.500;2022-07-22T05:43:30;15.60;99.90
15239;DHT22;7722;53.274;9.500;2022-07-22T05:45:57;15.70;99.90
15239;DHT22;7722;53.274;9.500;2022-07-22T05:48:25;15.70;99.90
15239;DHT22;7722;53.274;9.500;2022-07-22T05:50:52;15.80;99.90
15239;DHT22;7722;53.274;9.500;2022-07-22T05:53:19;15.90;99.90
15239;DHT22;7722;53.274;9.500;2022-07-22T05:55:48;15.90;99.90
15239;DHT22;7722;53.274;9.500;2022-07-22T05:58:15;16.10;99.90
15239;DHT22;7722;53.274;9.500;2022-07-22T06:00:42;16.10;99.90
15239;DHT22;7722;53.274;9.500;2022-07-22T06:03:09;16.30;99.90
15239;DHT22;7722;53.274;9.500;2022-07-22T06:05:36;16.40;99.90
15239;DHT22;7722;53.274;9.500;2022-07-22T06:08:03;16.50;99.90
15239;DHT22;7722;53.274;9.500;2022-07-22T06:10:31;16.50;99.90
15239;DHT22;7722;53.274;9.500;2022-07-22T06:12:59;16.60;99.90
15239;DHT22;7722;53.274;9.500;2022-07-22T06:15:26;16.60;99.90
15239;DHT22;7722;53.274;9.500;2022-07-22T06:17:53;16.70;99.90
15239;DHT22;7722;53.274;9.500;2022-07-22T06:20:20;16.70;99.90
15239;DHT22;7722;53.274;9.500;2022-07-22T06:22:47;16.50;99.90
15239;DHT22;7722;53.274;9.500;2022-07-22T06:25:14;16.80;99.90
15239;DHT22;7722;53.274;9.500;2022-07-22T06:27:41;16.90;99.90
15239;DHT22;7722;53.274;9.500;2022-07-22T06:30:11;17.00;99.90
15239;DHT22;7722;53.274;9.500;2022-07-22T06:32:38;16.90;99.90
15239;DHT22;7722;53.274;9.500;2022-07-22T06:35:06;16.90;99.90
15239;DHT22;7722;53.274;9.500;2022-07-22T06:37:33;17.00;99.90
15239;DHT22;7722;53.274;9.500;2022-07-22T06:40:00;17.00;99.90
15239;DHT22;7722;53.274;9.500;2022-07-22T06:42:27;17.20;99.90
15239;DHT22;7722;53.274;9.500;2022-07-22T06:44:54;17.10;99.90
15239;DHT22;7722;53.274;9.500;2022-07-22T06:47:23;17.30;99.90
15239;DHT22;7722;53.274;9.500;2022-07-22T06:49:50;17.40;99.90
15239;DHT22;7722;53.274;9.500;2022-07-22T06:52:18;17.40;99.90
15239;DHT22;7722;53.274;9.500;2022-07-22T06:54:45;17.50;99.90
15239;DHT22;7722;53.274;9.500;2022-07-22T06:57:12;17.20;99.90
15239;DHT22;7722;53.274;9.500;2022-07-22T06:59:39;17.40;99.90
15239;DHT22;7722;53.274;9.500;2022-07-22T07:02:06;17.40;99.90
15239;DHT22;7722;53.274;9.500;2022-07-22T07:04:35;17.30;99.90
15239;DHT22;7722;53.274;9.500;2022-07-22T07:07:02;17.50;99.90
15239;DHT22;7722;53.274;9.500;2022-07-22T07:09:29;17.40;99.90
15239;DHT22;7722;53.274;9.500;2022-07-22T07:11:57;17.20;99.90
15239;DHT22;7722;53.274;9.500;2022-07-22T07:14:24;17.50;99.90
15239;DHT22;7722;53.274;9.500;2022-07-22T07:16:51;17.50;99.90
15239;DHT22;7722;53.274;9.500;2022-07-22T07:19:18;17.50;99.90
15239;DHT22;7722;53.274;9.500;2022-07-22T07:21:47;17.30;99.90
15239;DHT22;7722;53.274;9.500;2022-07-22T07:24:14;17.30;99.90
15239;DHT22;7722;53.274;9.500;2022-07-22T07:26:41;17.40;99.90
15239;DHT22;7722;53.274;9.500;2022-07-22T07:29:08;17.50;99.90
15239;DHT22;7722;53.274;9.500;2022-07-22T07:31:35;17.60;99.90
15239;DHT22;7722;53.274;9.500;2022-07-22T07:34:02;17.60;99.90
15239;DHT22;7722;53.274;9.500;2022-07-22T07:36:30;17.50;99.90
15239;DHT22;7722;53.274;9.500;2022-07-22T07:38:58;17.30;99.90
15239;DHT22;7722;53.274;9.500;2022-07-22T07:41:25;17.50;99.90
15239;DHT22;7722;53.274;9.500;2022-07-22T07:43:52;17.50;99.90
15239;DHT22;7722;53.274;9.500;2022-07-22T07:46:20;17.50;99.90
15239;DHT22;7722;53.274;9.500;2022-07-22T07:48:47;17.50;99.90
15239;DHT22;7722;53.274;9.500;2022-07-22T07:51:14;17.50;99.90
15239;DHT22;7722;53.274;9.500;2022-07-22T07:53:41;17.60;99.90
15239;DHT22;7722;53.274;9.500;2022-07-22T07:56:10;17.60;99.90
15239;DHT22;7722;53.274;9.500;2022-07-22T07:58:37;17.70;99.90
15239;DHT22;7722;53.274;9.500;2022-07-22T08:01:04;17.80;99.90
15239;DHT22;7722;53.274;9.500;2022-07-22T08:03:31;17.80;99.90
15239;DHT22;7722;53.274;9.500;2022-07-22T08:05:58;17.90;99.90
15239;DHT22;7722;53.274;9.500;2022-07-22T08:08:26;17.90;99.90
15239;DHT22;7722;53.274;9.500;2022-07-22T08:10:53;18.20;99.90
15239;DHT22;7722;53.274;9.500;2022-07-22T08:13:21;18.30;99.90
15239;DHT22;7722;53.274;9.500;2022-07-22T08:15:48;18.30;99.90
15239;DHT22;7722;53.274;9.500;2022-07-22T08:18:15;18.40;99.90
15239;DHT22;7722;53.274;9.500;2022-07-22T08:20:42;18.00;99.90
15239;DHT22;7722;53.274;9.500;2022-07-22T08:23:09;18.40;99.90
15239;DHT22;7722;53.274;9.500;2022-07-22T08:25:37;18.60;99.90
15239;DHT22;7722;53.274;9.500;2022-07-22T08:28:04;18.40;99.90
15239;DHT22;7722;53.274;9.500;2022-07-22T08:30:33;18.60;99.90
15239;DHT22;7722;53.274;9.500;2022-07-22T08:33:00;18.80;99.90
15239;DHT22;7722;53.274;9.500;2022-07-22T08:35:27;18.50;99.90
15239;DHT22;7722;53.274;9.500;2022-07-22T08:37:54;18.60;99.90
15239;DHT22;7722;53.274;9.500;2022-07-22T08:40:21;18.70;99.90
15239;DHT22;7722;53.274;9.500;2022-07-22T08:42:49;19.00;99.90
15239;DHT22;7722;53.274;9.500;2022-07-22T08:45:17;18.80;99.90
15239;DHT22;7722;53.274;9.500;2022-07-22T08:47:46;18.60;99.90
15239;DHT22;7722;53.274;9.500;2022-07-22T08:50:14;18.50;99.90
15239;DHT22;7722;53.274;9.500;2022-07-22T08:52:41;18.30;99.90
15239;DHT22;7722;53.274;9.500;2022-07-22T08:55:09;18.30;99.90
15239;DHT22;7722;53.274;9.500;2022-07-22T08:57:36;17.80;99.90
15239;DHT22;7722;53.274;9.500;2022-07-22T09:00:09;18.00;99.90
15239;DHT22;7722;53.274;9.500;2022-07-22T09:02:38;18.30;99.90
15239;DHT22;7722;53.274;9.500;2022-07-22T09:05:09;18.40;99.90
15239;DHT22;7722;53.274;9.500;2022-07-22T09:07:37;18.50;99.90
15239;DHT22;7722;53.274;9.500;2022-07-22T09:10:06;18.60;99.90
15239;DHT22;7722;53.274;9.500;2022-07-22T09:12:34;18.30;99.90
15239;DHT22;7722;53.274;9.500;2022-07-22T09:15:02;18.40;99.90
15239;DHT22;7722;53.274;9.500;2022-07-22T09:17:32;18.50;99.90
15239;DHT22;7722;53.274;9.500;2022-07-22T09:20:02;18.50;99.90
15239;DHT22;7722;53.274;9.500;2022-07-22T09:22:39;18.30;99.90
15239;DHT22;7722;53.274;9.500;2022-07-22T09:25:19;18.00;99.90
15239;DHT22;7722;53.274;9.500;2022-07-22T09:27:49;17.90;99.90
15239;DHT22;7722;53.274;9.500;2022-07-22T09:30:18;17.80;99.90
15239;DHT22;7722;53.274;9.500;2022-07-22T09:32:46;17.70;99.90
15239;DHT22;7722;53.274;9.500;2022-07-22T09:35:13;17.60;99.90
15239;DHT22;7722;53.274;9.500;2022-07-22T09:37:49;17.70;99.90
15239;DHT22;7722;53.274;9.500;2022-07-22T09:40:18;17.80;99.90
15239;DHT22;7722;53.274;9.500;2022-07-22T09:42:48;18.30;99.90
15239;DHT22;7722;53.274;9.500;2022-07-22T09:45:16;18.50;99.90
15239;DHT22;7722;53.274;9.500;2022-07-22T09:47:45;18.90;99.90
15239;DHT22;7722;53.274;9.500;2022-07-22T09:50:22;18.90;99.90
15239;DHT22;7722;53.274;9.500;2022-07-22T09:52:52;18.70;99.90
15239;DHT22;7722;53.274;9.500;2022-07-22T09:55:21;18.70;99.90
15239;DHT22;7722;53.274;9.500;2022-07-22T09:57:49;19.10;99.90
15239;DHT22;7722;53.274;9.500;2022-07-22T10:00:18;19.40;99.90
15239;DHT22;7722;53.274;9.500;2022-07-22T10:02:47;19.30;99.90
15239;DHT22;7722;53.274;9.500;2022-07-22T10:05:17;18.90;99.90
15239;DHT22;7722;53.274;9.500;2022-07-22T10:07:46;19.10;99.90
15239;DHT22;7722;53.274;9.500;2022-07-22T10:10:16;18.70;99.90
15239;DHT22;7722;53.274;9.500;2022-07-22T10:12:47;18.80;99.90
15239;DHT22;7722;53.274;9.500;2022-07-22T10:15:14;18.80;99.90
15239;DHT22;7722;53.274;9.500;2022-07-22T10:17:43;19.00;99.90
15239;DHT22;7722;53.274;9.500;2022-07-22T10:20:11;19.10;99.90
15239;DHT22;7722;53.274;9.500;2022-07-22T10:22:48;18.60;99.90
15239;DHT22;7722;53.274;9.500;2022-07-22T10:25:18;18.80;99.90
15239;DHT22;7722;53.274;9.500;2022-07-22T10:27:48;18.80;99.90
15239;DHT22;7722;53.274;9.500;2022-07-22T10:30:19;18.30;99.90
15239;DHT22;7722;53.274;9.500;2022-07-22T10:33:05;18.50;99.90
15239;DHT22;7722;53.274;9.500;2022-07-22T10:35:33;18.50;99.90
15239;DHT22;7722;53.274;9.500;2022-07-22T10:38:03;18.50;99.90
15239;DHT22;7722;53.274;9.500;2022-07-22T10:40:46;18.60;99.90
15239;DHT22;7722;53.274;9.500;2022-07-22T10:43:13;18.80;99.90
15239;DHT22;7722;53.274;9.500;2022-07-22T10:45:44;18.90;99.90
15239;DHT22;7722;53.274;9.500;2022-07-22T10:48:14;19.10;99.90
15239;DHT22;7722;53.274;9.500;2022-07-22T10:51:05;19.60;99.90
15239;DHT22;7722;53.274;9.500;2022-07-22T10:53:42;19.80;99.90
15239;DHT22;7722;53.274;9.500;2022-07-22T10:56:20;19.70;99.90
15239;DHT22;7722;53.274;9.500;2022-07-22T10:59:07;19.70;99.90
15239;DHT22;7722;53.274;9.500;2022-07-22T11:01:37;19.50;99.90
15239;DHT22;7722;53.274;9.500;2022-07-22T11:04:13;19.10;99.90
15239;DHT22;7722;53.274;9.500;2022-07-22T11:06:41;19.30;99.90
15239;DHT22;7722;53.274;9.500;2022-07-22T11:09:10;19.40;99.90
15239;DHT22;7722;53.274;9.500;2022-07-22T11:11:41;19.30;99.90
15239;DHT22;7722;53.274;9.500;2022-07-22T11:14:17;19.80;99.90
15239;DHT22;7722;53.274;9.500;2022-07-22T11:16:45;19.80;99.90
15239;DHT22;7722;53.274;9.500;2022-07-22T11:19:12;20.00;99.90
15239;DHT22;7722;53.274;9.500;2022-07-22T11:21:39;19.90;99.90
15239;DHT22;7722;53.274;9.500;2022-07-22T11:24:07;19.70;99.90
15239;DHT22;7722;53.274;9.500;2022-07-22T11:26:40;19.40;99.90
15239;DHT22;7722;53.274;9.500;2022-07-22T11:29:08;19.30;99.90
15239;DHT22;7722;53.274;9.500;2022-07-22T11:31:36;19.50;99.90
15239;DHT22;7722;53.274;9.500;2022-07-22T11:34:08;19.40;99.90
15239;DHT22;7722;53.274;9.500;2022-07-22T11:36:36;19.30;99.90
15239;DHT22;7722;53.274;9.500;2022-07-22T11:39:03;19.40;99.90
15239;DHT22;7722;53.274;9.500;2022-07-22T11:41:32;19.50;99.90
15239;DHT22;7722;53.274;9.500;2022-07-22T11:44:00;19.50;99.90
15239;DHT22;7722;53.274;9.500;2022-07-22T11:46:33;19.60;99.90
15239;DHT22;7722;53.274;9.500;2022-07-22T11:49:00;20.30;99.90
15239;DHT22;7722;53.274;9.500;2022-07-22T11:51:29;20.40;99.90
15239;DHT22;7722;53.274;9.500;2022-07-22T11:53:57;20.10;99.90
15239;DHT22;7722;53.274;9.500;2022-07-22T11:56:25;20.50;99.90
15239;DHT22;7722;53.274;9.500;2022-07-22T11:58:53;20.70;99.90
15239;DHT22;7722;53.274;9.500;2022-07-22T12:01:24;20.70;99.90
15239;DHT22;7722;53.274;9.500;2022-07-22T12:03:52;21.00;99.90
15239;DHT22;7722;53.274;9.500;2022-07-22T12:06:21;21.40;99.90
15239;DHT22;7722;53.274;9.500;2022-07-22T12:08:50;21.00;99.90
15239;DHT22;7722;53.274;9.500;2022-07-22T12:11:19;21.00;99.90
15239;DHT22;7722;53.274;9.500;2022-07-22T12:13:49;20.40;99.90
15239;DHT22;7722;53.274;9.500;2022-07-22T12:16:18;20.60;99.90
15239;DHT22;7722;53.274;9.500;2022-07-22T12:18:52;21.00;99.90
15239;DHT22;7722;53.274;9.500;2022-07-22T12:21:20;21.70;99.90
15239;DHT22;7722;53.274;9.500;2022-07-22T12:23:55;21.70;99.90
15239;DHT22;7722;53.274;9.500;2022-07-22T12:26:43;21.30;98.90
15239;DHT22;7722;53.274;9.500;2022-07-22T12:29:28;20.80;99.50
15239;DHT22;7722;53.274;9.500;2022-07-22T12:31:57;20.50;99.90
15239;DHT22;7722;53.274;9.500;2022-07-22T12:34:35;20.10;99.90
15239;DHT22;7722;53.274;9.500;2022-07-22T12:37:12;19.70;99.90
15239;DHT22;7722;53.274;9.500;2022-07-22T12:39:45;19.60;99.90
15239;DHT22;7722;53.274;9.500;2022-07-22T12:42:18;19.80;99.90
15239;DHT22;7722;53.274;9.500;2022-07-22T12:44:53;20.30;99.90
15239;DHT22;7722;53.274;9.500;2022-07-22T12:47:38;19.80;99.90
15239;DHT22;7722;53.274;9.500;2022-07-22T12:50:24;20.00;99.90
15239;DHT22;7722;53.274;9.500;2022-07-22T12:52:53;20.40;99.90
15239;DHT22;7722;53.274;9.500;2022-07-22T12:55:20;20.80;99.90
15239;DHT22;7722;53.274;9.500;2022-07-22T12:57:47;21.00;99.10
15239;DHT22;7722;53.274;9.500;2022-07-22T13:00:18;21.10;99.30
15239;DHT22;7722;53.274;9.500;2022-07-22T13:02:45;21.50;99.90
15239;DHT22;7722;53.274;9.500;2022-07-22T13:05:12;21.60;99.40
15239;DHT22;7722;53.274;9.500;2022-07-22T13:07:41;21.90;98.40
15239;DHT22;7722;53.274;9.500;2022-07-22T13:10:09;21.60;99.40
15239;DHT22;7722;53.274;9.500;2022-07-22T13:12:37;21.20;99.10
15239;DHT22;7722;53.274;9.500;2022-07-22T13:15:05;21.10;99.90
15239;DHT22;7722;53.274;9.500;2022-07-22T13:17:33;21.20;98.90
15239;DHT22;7722;53.274;9.500;2022-07-22T13:20:01;21.80;99.10
15239;DHT22;7722;53.274;9.500;2022-07-22T13:22:28;22.40;97.40
15239;DHT22;7722;53.274;9.500;2022-07-22T13:24:56;22.80;96.40
15239;DHT22;7722;53.274;9.500;2022-07-22T13:27:23;22.90;96.30
15239;DHT22;7722;53.274;9.500;2022-07-22T13:29:50;22.30;95.90
15239;DHT22;7722;53.274;9.500;2022-07-22T13:32:17;21.50;96.40
15239;DHT22;7722;53.274;9.500;2022-07-22T13:34:44;21.40;97.80
15239;DHT22;7722;53.274;9.500;2022-07-22T13:37:11;21.10;97.50
15239;DHT22;7722;53.274;9.500;2022-07-22T13:39:38;20.90;98.40
15239;DHT22;7722;53.274;9.500;2022-07-22T13:42:09;21.00;97.80
15239;DHT22;7722;53.274;9.500;2022-07-22T13:44:36;21.30;98.00
15239;DHT22;7722;53.274;9.500;2022-07-22T13:47:03;21.30;96.60
15239;DHT22;7722;53.274;9.500;2022-07-22T13:49:30;21.00;96.70
15239;DHT22;7722;53.274;9.500;2022-07-22T13:51:57;20.90;97.30
15239;DHT22;7722;53.274;9.500;2022-07-22T13:54:24;21.50;97.00
15239;DHT22;7722;53.274;9.500;2022-07-22T13:56:51;21.10;97.60
15239;DHT22;7722;53.274;9.500;2022-07-22T13:59:19;21.40;97.00
15239;DHT22;7722;53.274;9.500;2022-07-22T14:01:46;21.60;97.80
15239;DHT22;7722;53.274;9.500;2022-07-22T14:04:13;21.40;97.60
15239;DHT22;7722;53.274;9.500;2022-07-22T14:06:40;21.10;96.50
15239;DHT22;7722;53.274;9.500;2022-07-22T14:09:07;20.80;96.70
15239;DHT22;7722;53.274;9.500;2022-07-22T14:11:34;20.70;97.70
15239;DHT22;7722;53.274;9.500;2022-07-22T14:14:01;20.80;97.70
15239;DHT22;7722;53.274;9.500;2022-07-22T14:16:30;21.00;97.60
15239;DHT22;7722;53.274;9.500;2022-07-22T14:19:04;21.20;96.40
15239;DHT22;7722;53.274;9.500;2022-07-22T14:21:32;21.30;95.90
15239;DHT22;7722;53.274;9.500;2022-07-22T14:23:59;21.20;96.80
15239;DHT22;7722;53.274;9.500;2022-07-22T14:26:27;21.60;96.70
15239;DHT22;7722;53.274;9.500;2022-07-22T14:28:54;22.10;95.70
15239;DHT22;7722;53.274;9.500;2022-07-22T14:31:21;22.50;95.40
15239;DHT22;7722;53.274;9.500;2022-07-22T14:33:50;22.60;95.60
15239;DHT22;7722;53.274;9.500;2022-07-22T14:36:17;22.30;94.20
15239;DHT22;7722;53.274;9.500;2022-07-22T14:38:44;22.00;95.20
15239;DHT22;7722;53.274;9.500;2022-07-22T14:41:11;22.10;95.50
15239;DHT22;7722;53.274;9.500;2022-07-22T14:43:38;22.10;94.00
15239;DHT22;7722;53.274;9.500;2022-07-22T14:46:06;21.80;95.80
15239;DHT22;7722;53.274;9.500;2022-07-22T14:48:35;21.60;95.90
15239;DHT22;7722;53.274;9.500;2022-07-22T14:51:05;21.40;95.20
15239;DHT22;7722;53.274;9.500;2022-07-22T14:53:32;21.90;94.80
15239;DHT22;7722;53.274;9.500;2022-07-22T14:55:59;21.90;95.10
15239;DHT22;7722;53.274;9.500;2022-07-22T14:58:26;21.60;95.30
15239;DHT22;7722;53.274;9.500;2022-07-22T15:00:53;21.50;96.20
15239;DHT22;7722;53.274;9.500;2022-07-22T15:03:20;21.20;96.70
15239;DHT22;7722;53.274;9.500;2022-07-22T15:05:47;20.90;96.00
15239;DHT22;7722;53.274;9.500;2022-07-22T15:08:16;21.10;96.90
15239;DHT22;7722;53.274;9.500;2022-07-22T15:10:44;20.90;97.00
15239;DHT22;7722;53.274;9.500;2022-07-22T15:13:11;20.80;96.60
15239;DHT22;7722;53.274;9.500;2022-07-22T15:15:38;21.00;97.00
15239;DHT22;7722;53.274;9.500;2022-07-22T15:18:05;21.00;98.00
15239;DHT22;7722;53.274;9.500;2022-07-22T15:20:33;20.80;97.60
15239;DHT22;7722;53.274;9.500;2022-07-22T15:23:00;21.00;97.10
15239;DHT22;7722;53.274;9.500;2022-07-22T15:25:29;20.90;97.10
15239;DHT22;7722;53.274;9.500;2022-07-22T15:27:56;20.90;97.00
15239;DHT22;7722;53.274;9.500;2022-07-22T15:30:24;20.70;97.40
15239;DHT22;7722;53.274;9.500;2022-07-22T15:32:51;20.80;97.70
15239;DHT22;7722;53.274;9.500;2022-07-22T15:35:18;20.80;96.60
15239;DHT22;7722;53.274;9.500;2022-07-22T15:37:45;20.40;97.70
15239;DHT22;7722;53.274;9.500;2022-07-22T15:40:12;20.40;97.30
15239;DHT22;7722;53.274;9.500;2022-07-22T15:42:40;20.40;98.40
15239;DHT22;7722;53.274;9.500;2022-07-22T15:45:09;20.40;98.10
15239;DHT22;7722;53.274;9.500;2022-07-22T15:47:36;20.10;97.80
15239;DHT22;7722;53.274;9.500;2022-07-22T15:50:03;20.30;98.60
15239;DHT22;7722;53.274;9.500;2022-07-22T15:52:31;20.30;97.70